Time;durP1;ratioP1;P1;durP2;ratioP2;P2;SDS_P1;SDS_P2;PMS_P1;PMS_P2;Temp;Humidity;BMP_temperature;BMP_pressure;BME280_temperature;BME280_humidity;BME280_pressure;Samples;Min_cycle;Max_cycle;Signal;HPM_P1;HPM_P2
2023/02/27 05:05:11;;;;;;;;;13.00;9.67;;;;;-1.14;79.91;99014.44;4572710;23;104440;31
2023/02/27 05:07:53;;;;;;;;;6.33;4.00;;;;;-0.97;79.40;99029.91;4800198;28;107754;-70
2023/02/27 05:10:24;;;;;;;;;8.00;7.00;;;;;-0.99;80.04;99029.16;4812946;29;102399;-69
2023/02/27 05:12:57;;;;;;;;;4.00;2.00;;;;;-0.99;80.21;99029.16;4814729;29;102245;-69
2023/02/27 05:15:31;;;;;;;;;6.67;5.00;;;;;-1.00;78.74;99039.91;4818623;29;102078;-70
2023/02/27 05:18:04;;;;;;;;;5.00;4.00;;;;;-1.02;79.50;99039.16;4816854;29;104429;-69
2023/02/27 05:21:02;;;;;;;;;1.33;1.33;;;;;-1.06;80.13;99049.19;4817142;29;102132;-70
2023/02/27 05:24:02;;;;;;;;;7.00;7.00;;;;;-1.09;81.52;99053.88;4814691;29;102247;-70
2023/02/27 05:26:57;;;;;;;;;9.67;5.00;;;;;-1.06;80.92;99054.50;4817159;29;103183;-69
2023/02/27 05:29:49;;;;;;;;;7.00;7.00;;;;;-1.03;81.09;99064.00;4814765;29;108641;-69
2023/02/27 05:32:32;;;;;;;;;10.33;9.00;;;;;-1.10;81.24;99061.00;4815174;29;103468;-68
2023/02/27 05:35:11;;;;;;;;;9.67;8.33;;;;;-1.06;81.13;99065.09;4815772;29;102460;-69
2023/02/27 05:37:46;;;;;;;;;7.00;6.33;;;;;-1.02;81.32;99061.25;4819199;29;104515;-69
2023/02/27 05:40:20;;;;;;;;;7.00;5.67;;;;;-1.05;82.13;99061.50;4815197;29;105003;-69
2023/02/27 05:42:59;;;;;;;;;9.00;8.00;;;;;-1.10;80.91;99071.59;4817313;29;102272;-68
2023/02/27 05:45:30;;;;;;;;;9.00;9.00;;;;;-1.11;80.96;99069.06;4813836;29;102299;-69
2023/02/27 05:48:06;;;;;;;;;8.00;7.00;;;;;-1.09;82.32;99073.31;4817288;29;102380;-69
2023/02/27 05:50:36;;;;;;;;;13.67;10.33;;;;;-1.13;80.67;99066.53;4812633;29;104418;-69
2023/02/27 05:53:08;;;;;;;;;12.67;9.00;;;;;-1.12;81.06;99075.31;4816013;29;102545;-69
2023/02/27 05:55:47;;;;;;;;;7.67;7.33;;;;;-1.11;81.50;99072.56;4815892;29;102470;-69
2023/02/27 05:58:44;;;;;;;;;8.67;7.33;;;;;-1.13;80.95;99077.16;4819794;29;102925;-69
2023/02/27 06:01:12;;;;;;;;;5.00;5.00;;;;;-1.01;81.05;99084.19;4799191;29;107916;-69
2023/02/27 06:03:40;;;;;;;;;8.00;5.67;;;;;-1.06;80.73;99091.63;4813439;29;102654;-69
2023/02/27 06:06:13;;;;;;;;;7.00;7.00;;;;;-1.07;79.64;99092.59;4802196;29;102420;-70
2023/02/27 06:08:40;;;;;;;;;6.67;6.67;;;;;-1.08;80.24;99088.25;4793994;29;102353;-68
2023/02/27 06:11:19;;;;;;;;;8.00;7.00;;;;;-1.02;78.93;99090.44;4791872;29;104112;-68
2023/02/27 06:14:09;;;;;;;;;5.67;5.67;;;;;-1.00;79.91;99099.16;4797213;29;102225;-69
2023/02/27 06:16:53;;;;;;;;;10.33;8.00;;;;;-1.07;79.71;99095.25;4797757;29;101828;-70
2023/02/27 06:19:43;;;;;;;;;4.67;4.00;;;;;-0.97;79.96;99098.91;4796146;29;102091;-70
2023/02/27 06:22:27;;;;;;;;;4.33;2.67;;;;;-0.86;80.19;99095.44;4792436;29;108103;-69
2023/02/27 06:25:12;;;;;;;;;1.00;1.00;;;;;-0.81;78.25;99093.25;4797975;29;102400;-70
2023/02/27 06:27:56;;;;;;;;;4.00;4.00;;;;;-0.86;79.26;99094.59;4796961;29;102112;-71
2023/02/27 06:30:32;;;;;;;;;13.00;7.00;;;;;-0.91;79.33;99093.13;4799625;29;102227;-70
2023/02/27 06:33:00;;;;;;;;;10.67;8.00;;;;;-0.90;79.65;99100.13;4799001;29;104161;-70
2023/02/27 06:35:28;;;;;;;;;11.33;7.33;;;;;-0.87;78.81;99100.84;4788392;29;102376;-70
2023/02/27 06:37:55;;;;;;;;;5.00;5.00;;;;;-0.77;79.68;99108.00;4793797;29;102470;-69
2023/02/27 06:40:23;;;;;;;;;13.00;12.00;;;;;-0.81;79.52;99100.41;4796649;29;102893;-70
2023/02/27 06:42:50;;;;;;;;;9.00;8.00;;;;;-0.70;79.07;99108.38;4796173;29;104990;-70
2023/02/27 06:45:17;;;;;;;;;8.00;6.33;;;;;-0.64;79.24;99110.56;4797197;29;102382;-70
2023/02/27 06:47:44;;;;;;;;;8.00;8.00;;;;;-0.73;78.68;99100.66;4796973;29;102306;-69
2023/02/27 06:50:13;;;;;;;;;11.00;8.33;;;;;-0.60;78.30;99110.22;4789595;29;102438;-69
2023/02/27 06:52:40;;;;;;;;;9.00;8.00;;;;;-0.59;78.82;99111.06;4795159;29;103678;-70
2023/02/27 06:55:08;;;;;;;;;12.00;10.00;;;;;-0.59;77.92;99113.72;4797247;29;102474;-70
2023/02/27 06:57:35;;;;;;;;;9.00;6.67;;;;;-0.55;78.50;99115.16;4797792;29;102077;-70
2023/02/27 07:00:04;;;;;;;;;5.67;4.67;;;;;-0.41;77.40;99114.94;4798552;29;102368;-69
2023/02/27 07:02:31;;;;;;;;;11.00;9.00;;;;;-0.57;77.16;99109.09;4797369;29;103002;-70
2023/02/27 07:04:58;;;;;;;;;12.33;11.00;;;;;-0.45;77.08;99109.00;4797776;29;102212;-71
2023/02/27 07:07:25;;;;;;;;;4.00;2.67;;;;;-0.32;76.73;99118.69;4796011;29;102501;-70
2023/02/27 07:10:05;;;;;;;;;9.00;8.00;;;;;-0.40;76.64;99121.91;4799399;29;102052;-70
2023/02/27 07:12:32;;;;;;;;;13.00;9.67;;;;;-0.38;77.98;99127.97;4794225;29;103761;-70
2023/02/27 07:14:59;;;;;;;;;10.33;8.00;;;;;-0.34;76.50;99129.41;4797408;29;102279;-70
2023/02/27 07:17:26;;;;;;;;;5.00;4.67;;;;;-0.17;76.81;99128.09;4795943;29;102242;-70
2023/02/27 07:19:53;;;;;;;;;4.00;4.00;;;;;-0.05;76.53;99122.69;4795882;29;102421;-70
2023/02/27 07:22:20;;;;;;;;;4.00;3.33;;;;;0.04;75.87;99125.56;4798451;29;104056;-70
2023/02/27 07:24:47;;;;;;;;;6.00;4.33;;;;;0.07;76.17;99135.94;4796687;29;102357;-70
2023/02/27 07:27:14;;;;;;;;;8.67;8.00;;;;;-0.08;76.00;99138.84;4796713;29;102046;-70
2023/02/27 07:29:41;;;;;;;;;12.33;7.33;;;;;0.02;73.95;99132.81;4800132;29;102509;-70
2023/02/27 07:32:09;;;;;;;;;6.00;6.00;;;;;0.02;74.31;99130.13;4796820;29;104092;-70
2023/02/27 07:34:36;;;;;;;;;8.33;6.00;;;;;-0.06;75.22;99134.25;4796834;29;102278;-70
2023/02/27 07:37:03;;;;;;;;;8.00;8.00;;;;;-0.16;75.56;99124.47;4797612;29;102124;-70
2023/02/27 07:39:30;;;;;;;;;9.00;6.67;;;;;-0.34;74.61;99105.50;4798682;29;102528;-70
2023/02/27 07:41:56;;;;;;;;;11.00;8.33;;;;;0.00;73.77;99130.28;4797038;29;104074;-70
2023/02/27 07:44:24;;;;;;;;;11.67;7.33;;;;;0.14;73.74;99131.81;4797803;29;102635;-70
2023/02/27 07:46:51;;;;;;;;;9.67;8.33;;;;;0.16;73.10;99135.22;4781574;29;102525;-70
2023/02/27 07:49:18;;;;;;;;;7.50;5.50;;;;;0.27;72.10;99135.22;4801522;29;102035;-70
2023/02/27 07:51:45;;;;;;;;;12.00;9.75;;;;;0.20;73.02;99139.31;4796123;29;104045;-71
2023/02/27 07:54:12;;;;;;;;;11.33;8.67;;;;;0.24;72.47;99148.72;4799589;29;102231;-70
2023/02/27 07:56:39;;;;;;;;;17.67;11.33;;;;;0.06;73.54;99159.03;4795575;29;102316;-71
2023/02/27 07:59:06;;;;;;;;;12.67;10.67;;;;;-0.10;74.55;99150.56;4798186;29;102367;-71
2023/02/27 08:01:33;;;;;;;;;13.00;11.33;;;;;-0.04;74.35;99148.25;4778661;29;103982;-71
2023/02/27 08:04:00;;;;;;;;;10.33;8.00;;;;;0.04;75.23;99152.16;4799471;29;102197;-70
2023/02/27 08:06:27;;;;;;;;;12.67;10.33;;;;;-0.09;74.88;99158.41;4798591;29;102388;-71
2023/02/27 08:08:54;;;;;;;;;10.00;9.00;;;;;-0.02;75.44;99164.09;4800492;29;102413;-71
2023/02/27 08:11:22;;;;;;;;;6.00;6.00;;;;;0.16;74.58;99162.66;4799245;29;104024;-71
2023/02/27 08:13:49;;;;;;;;;8.00;6.67;;;;;0.35;73.04;99157.56;4798443;29;102262;-71
2023/02/27 08:16:31;;;;;;;;;18.33;8.33;;;;;0.38;73.14;99167.09;4796656;29;102317;-71
2023/02/27 08:18:59;;;;;;;;;14.33;10.00;;;;;0.20;75.02;99164.09;4802663;29;102242;-71
2023/02/27 08:21:28;;;;;;;;;20.67;13.67;;;;;0.00;76.65;99152.38;4801503;29;104053;-71
2023/02/27 08:23:55;;;;;;;;;14.33;13.33;;;;;0.17;77.38;99179.44;4796039;29;103534;-71
2023/02/27 08:26:23;;;;;;;;;14.67;13.67;;;;;0.24;77.21;99181.50;4793593;29;102347;-71
2023/02/27 08:28:50;;;;;;;;;18.00;13.33;;;;;0.14;76.14;99183.19;4800677;29;102283;-71
2023/02/27 08:31:17;;;;;;;;;6.00;2.67;;;;;0.20;75.60;99195.16;4799136;29;108926;-71
2023/02/27 08:33:44;;;;;;;;;14.33;13.00;;;;;0.27;76.81;99191.06;4798900;29;102079;-71
2023/02/27 08:36:11;;;;;;;;;14.00;11.75;;;;;0.20;77.77;99200.47;4799771;29;101951;-71
2023/02/27 08:38:38;;;;;;;;;12.00;12.00;;;;;0.27;76.68;99196.38;4799392;29;102240;-71
2023/02/27 08:41:06;;;;;;;;;9.00;9.00;;;;;0.34;76.43;99200.22;4799216;29;103990;-71
2023/02/27 08:43:33;;;;;;;;;17.00;14.33;;;;;0.17;77.39;99174.97;4795292;29;102498;-71
2023/02/27 08:46:00;;;;;;;;;19.33;17.33;;;;;0.22;76.94;99196.75;4798222;29;102142;-70
2023/02/27 08:48:28;;;;;;;;;15.67;13.33;;;;;0.22;78.00;99195.88;4801299;29;102488;-71
2023/02/27 08:50:55;;;;;;;;;10.67;10.00;;;;;0.37;75.54;99198.16;4799539;29;103749;-70
2023/02/27 08:53:25;;;;;;;;;14.75;10.00;;;;;0.45;76.31;99197.56;4796246;29;103009;-70
2023/02/27 08:55:52;;;;;;;;;11.67;10.33;;;;;0.29;77.67;99203.25;4800435;29;102391;-70
2023/02/27 08:58:19;;;;;;;;;15.33;10.67;;;;;0.39;75.35;99214.84;4801778;29;102305;-71
2023/02/27 09:00:46;;;;;;;;;14.00;12.00;;;;;0.30;75.45;99209.41;4798453;29;104412;-71
2023/02/27 09:03:13;;;;;;;;;19.67;16.00;;;;;0.34;77.18;99214.38;4790892;29;102269;-70
2023/02/27 09:05:41;;;;;;;;;12.75;11.50;;;;;0.31;76.74;99181.88;4797583;29;102487;-70
2023/02/27 09:08:08;;;;;;;;;8.00;8.00;;;;;0.56;78.77;99218.81;4801177;29;102238;-70
2023/02/27 09:10:35;;;;;;;;;14.33;10.00;;;;;0.46;77.73;99212.53;4798031;29;104036;-70
2023/02/27 09:13:02;;;;;;;;;22.00;15.33;;;;;0.27;78.81;99217.66;4796541;29;102454;-70
2023/02/27 09:15:31;;;;;;;;;28.00;16.33;;;;;-0.03;80.59;99229.69;4800140;29;102682;-71
2023/02/27 09:18:01;;;;;;;;;13.00;12.67;;;;;-0.05;81.82;99223.69;4800941;29;102193;-70
2023/02/27 09:20:30;;;;;;;;;14.25;10.00;;;;;0.05;82.83;99222.94;4776960;29;103451;-71
2023/02/27 09:22:58;;;;;;;;;15.33;12.33;;;;;-0.13;83.53;99236.69;4798125;29;102083;-69
2023/02/27 09:25:26;;;;;;;;;22.00;16.67;;;;;-0.35;85.94;99228.69;4798006;29;102233;-70
2023/02/27 09:27:53;;;;;;;;;13.50;11.50;;;;;-0.65;82.20;99233.66;4799410;29;102528;-70
2023/02/27 09:30:21;;;;;;;;;5.25;4.25;;;;;-0.79;79.75;99233.84;4800652;29;104022;-70
2023/02/27 09:32:48;;;;;;;;;12.00;6.00;;;;;-0.92;83.72;99232.09;4798467;29;102338;-71
2023/02/27 09:35:19;;;;;;;;;9.00;6.00;;;;;-1.24;85.38;99225.66;4799791;29;102336;-70
2023/02/27 09:37:48;;;;;;;;;6.67;4.33;;;;;-0.82;86.37;99242.91;4798790;29;102492;-71
2023/02/27 09:40:36;;;;;;;;;5.67;4.00;;;;;-0.69;86.56;99248.97;4799573;29;104122;-70
2023/02/27 09:43:10;;;;;;;;;8.00;5.67;;;;;-0.63;86.99;99245.03;4793649;29;102374;-70
2023/02/27 09:45:40;;;;;;;;;9.00;7.33;;;;;-0.53;87.81;99240.69;4801014;29;102138;-71
2023/02/27 09:48:20;;;;;;;;;11.33;9.67;;;;;-0.35;87.47;99241.97;4799316;29;103275;-70
2023/02/27 09:50:51;;;;;;;;;8.00;8.00;;;;;-0.07;85.94;99236.22;4798638;29;108786;-70
2023/02/27 09:53:54;;;;;;;;;12.00;9.00;;;;;0.06;85.09;99245.91;4796998;29;102753;-70
2023/02/27 09:56:29;;;;;;;;;8.00;5.33;;;;;0.42;83.80;99237.69;4771909;29;102429;-70
2023/02/27 09:59:34;;;;;;;;;13.00;11.67;;;;;0.48;78.38;99231.91;4798673;29;102526;-70
2023/02/27 10:02:37;;;;;;;;;10.33;9.00;;;;;0.98;79.80;99234.94;4794897;29;108736;-69
2023/02/27 10:05:13;;;;;;;;;15.75;11.00;;;;;1.16;76.54;99239.63;4772506;29;102360;-70
2023/02/27 10:07:47;;;;;;;;;13.25;9.50;;;;;1.30;76.79;99242.00;4792316;29;102539;-70
2023/02/27 10:10:32;;;;;;;;;14.00;13.25;;;;;1.05;73.26;99236.13;4800850;29;102376;-70
2023/02/27 10:13:18;;;;;;;;;7.50;6.50;;;;;1.28;72.79;99245.72;4796776;29;108787;-70
2023/02/27 10:15:48;;;;;;;;;14.75;10.25;;;;;1.37;74.34;99241.47;4798444;29;102231;-70
2023/02/27 10:18:17;;;;;;;;;8.25;8.00;;;;;1.18;71.21;99250.13;4795125;29;101961;-70
2023/02/27 10:20:59;;;;;;;;;9.25;8.00;;;;;1.00;75.43;99248.97;4799032;29;102241;-69
2023/02/27 10:23:42;;;;;;;;;7.25;6.50;;;;;1.16;73.74;99233.44;4795937;29;103645;-70
2023/02/27 10:26:28;;;;;;;;;10.00;8.50;;;;;1.11;71.28;99252.47;4796116;29;102510;-70
2023/02/27 10:29:00;;;;;;;;;9.00;6.25;;;;;1.00;67.89;99243.63;4796398;29;102816;-70
2023/02/27 10:31:32;;;;;;;;;9.50;5.50;;;;;1.13;70.11;99247.84;4799882;29;102323;-70
2023/02/27 10:34:00;;;;;;;;;7.00;5.00;;;;;1.25;69.48;99244.19;4799199;29;104266;-69
2023/02/27 10:36:27;;;;;;;;;5.75;5.25;;;;;1.50;68.61;99252.78;4799317;29;102288;-70
2023/02/27 10:39:06;;;;;;;;;6.50;5.00;;;;;1.73;64.67;99249.88;4797763;29;102281;-70
2023/02/27 10:41:35;;;;;;;;;6.50;4.25;;;;;1.74;65.88;99240.94;4800709;29;102276;-69
2023/02/27 10:44:03;;;;;;;;;1.00;1.00;;;;;1.87;62.55;99237.19;4798406;29;104100;-70
2023/02/27 10:46:33;;;;;;;;;2.75;2.75;;;;;1.88;59.08;99234.41;4799430;29;102099;-70
2023/02/27 10:49:04;;;;;;;;;1.00;1.00;;;;;1.93;57.52;99236.69;4800635;29;102402;-70
2023/02/27 10:51:35;;;;;;;;;1.50;1.50;;;;;1.71;57.31;99233.16;4796887;29;102511;-69
2023/02/27 10:54:24;;;;;;;;;0.50;0.50;;;;;1.43;55.41;99241.81;4798705;29;104021;-69
2023/02/27 10:56:51;;;;;;;;;0.00;0.00;;;;;1.73;55.26;99244.56;4798788;29;102099;-70
2023/02/27 10:59:38;;;;;;;;;0.00;0.00;;;;;1.95;57.90;99222.25;4788106;29;103059;-70
2023/02/27 11:02:20;;;;;;;;;6.00;3.25;;;;;2.19;59.64;99232.63;4795900;29;102073;-70
2023/02/27 11:04:55;;;;;;;;;3.50;2.25;;;;;2.22;64.51;99245.69;4798917;29;108564;-70
2023/02/27 11:07:38;;;;;;;;;1.75;1.00;;;;;1.80;61.30;99244.91;4797221;29;102441;-70
2023/02/27 11:10:21;;;;;;;;;3.50;2.00;;;;;1.87;62.81;99242.53;4794633;29;102383;-70
2023/02/27 11:13:05;;;;;;;;;5.00;4.00;;;;;2.25;60.73;99245.44;4800566;29;102545;-70
2023/02/27 11:15:37;;;;;;;;;4.50;2.25;;;;;2.12;57.97;99250.13;4797105;29;108728;-69
2023/02/27 11:18:26;;;;;;;;;2.25;2.00;;;;;2.00;57.26;99251.19;4798202;29;102209;-69
2023/02/27 11:21:07;;;;;;;;;4.00;2.00;;;;;1.80;57.75;99256.38;4792908;29;102261;-70
2023/02/27 11:23:34;;;;;;;;;9.00;4.50;;;;;1.40;59.47;99244.72;4796784;29;102037;-70
2023/02/27 11:26:14;;;;;;;;;4.00;3.00;;;;;1.76;62.57;99244.28;4795824;29;103993;-70
2023/02/27 11:28:41;;;;;;;;;0.00;0.00;;;;;1.85;59.40;99247.16;4796609;29;102535;-69
2023/02/27 11:31:19;;;;;;;;;6.00;6.00;;;;;1.80;60.37;99245.72;4799995;29;102224;-71
2023/02/27 11:33:56;;;;;;;;;5.00;5.00;;;;;1.65;61.78;99216.88;4798660;29;102494;-69
2023/02/27 11:36:47;;;;;;;;;6.75;6.00;;;;;1.94;63.73;99257.88;4793192;29;108792;-71
2023/02/27 11:39:25;;;;;;;;;3.00;3.00;;;;;2.02;63.36;99255.41;4798217;29;102093;-70
2023/02/27 11:41:54;;;;;;;;;2.25;2.25;;;;;1.79;60.41;99252.03;4799417;29;102458;-70
2023/02/27 11:44:25;;;;;;;;;2.00;1.75;;;;;1.59;59.59;99236.88;4802081;29;102281;-70
2023/02/27 11:47:18;;;;;;;;;2.00;2.00;;;;;1.45;57.93;99247.00;4800641;29;109707;-71
2023/02/27 11:50:21;;;;;;;;;4.00;2.00;;;;;0.22;57.66;99070.91;4800143;29;103436;-69
2023/02/27 11:52:55;;;;;;;;;1.00;1.00;;;;;1.33;56.24;99251.53;4801817;29;102189;-70
2023/02/27 11:55:26;;;;;;;;;1.00;1.00;;;;;1.48;56.82;99255.59;4801818;29;104858;-71
2023/02/27 11:58:04;;;;;;;;;2.00;2.00;;;;;1.26;56.96;99247.69;4800803;29;108772;-70
2023/02/27 12:01:01;;;;;;;;;1.25;1.00;;;;;1.60;57.21;99251.91;4785481;29;102858;-70
2023/02/27 12:03:53;;;;;;;;;1.00;1.00;;;;;1.70;54.61;99247.50;4800070;29;102582;-70
2023/02/27 12:06:39;;;;;;;;;2.75;2.00;;;;;1.92;55.30;99245.66;4800200;29;102000;-70
2023/02/27 12:09:35;;;;;;;;;3.00;3.00;;;;;2.20;55.08;99247.66;4800458;29;109779;-71
2023/02/27 12:12:10;;;;;;;;;2.25;2.00;;;;;2.44;53.20;99234.84;4800248;29;102541;-70
2023/02/27 12:14:48;;;;;;;;;1.00;1.00;;;;;2.18;58.69;99250.44;4796172;29;109567;-70
2023/02/27 12:17:39;;;;;;;;;5.00;2.00;;;;;2.28;54.28;99255.84;4801346;29;102573;-70
2023/02/27 12:20:22;;;;;;;;;1.50;1.00;;;;;2.01;56.57;99250.22;4800732;29;108617;-70
2023/02/27 12:22:52;;;;;;;;;3.00;1.50;;;;;2.04;53.11;99253.44;4799915;29;102245;-70
2023/02/27 12:25:38;;;;;;;;;2.00;2.00;;;;;1.81;52.63;99251.91;4800156;29;102014;-70
2023/02/27 12:28:19;;;;;;;;;3.00;1.75;;;;;1.79;52.88;99254.72;4800094;29;103406;-69
2023/02/27 12:31:10;;;;;;;;;4.50;1.25;;;;;2.00;53.82;99256.50;4796912;29;104261;-70
2023/02/27 12:33:43;;;;;;;;;2.00;2.00;;;;;2.14;57.96;99259.69;4791215;29;102135;-70
2023/02/27 12:36:12;;;;;;;;;2.50;2.50;;;;;2.28;60.27;99265.66;4799870;29;102496;-71
2023/02/27 12:38:40;;;;;;;;;2.75;2.75;;;;;2.23;57.03;99272.25;4800295;29;102019;-70
2023/02/27 12:41:29;;;;;;;;;3.00;2.75;;;;;2.24;58.79;99271.28;4799889;29;103999;-70
2023/02/27 12:44:06;;;;;;;;;8.50;6.50;;;;;1.83;60.98;99278.44;4798540;29;102590;-69
2023/02/27 12:46:47;;;;;;;;;6.00;6.00;;;;;1.53;60.47;99272.03;4801751;29;102338;-70
2023/02/27 12:49:45;;;;;;;;;5.25;5.25;;;;;1.52;60.30;99281.00;4799637;29;102274;-69
2023/02/27 12:52:24;;;;;;;;;5.00;2.75;;;;;1.63;60.75;99280.94;4796156;29;108653;-70
2023/02/27 12:55:00;;;;;;;;;5.50;3.00;;;;;1.62;59.30;99283.75;4799153;29;102234;-69
2023/02/27 12:57:57;;;;;;;;;6.75;5.50;;;;;1.59;59.75;99268.84;4798277;29;102061;-70
2023/02/27 13:00:43;;;;;;;;;9.00;7.25;;;;;1.75;59.58;99274.59;4798021;29;102414;-70
2023/02/27 13:03:44;;;;;;;;;7.00;4.50;;;;;1.88;61.68;99278.91;4798582;29;104360;-70
2023/02/27 13:06:27;;;;;;;;;6.75;5.50;;;;;1.54;58.14;99281.72;4796142;29;102111;-71
2023/02/27 13:09:22;;;;;;;;;5.50;5.25;;;;;1.32;63.07;99287.13;4798806;29;102254;-71
2023/02/27 13:12:16;;;;;;;;;6.00;6.00;;;;;1.47;59.60;99285.03;4801618;29;102548;-69
2023/02/27 13:15:02;;;;;;;;;5.00;2.50;;;;;1.67;59.35;99284.19;4798197;29;108680;-69
2023/02/27 13:17:43;;;;;;;;;5.00;4.00;;;;;1.37;52.75;99281.41;4797798;29;102268;-70
2023/02/27 13:20:16;;;;;;;;;4.50;4.50;;;;;1.45;54.36;99289.63;4795126;29;102214;-70
2023/02/27 13:23:32;;;;;;;;;5.50;4.00;;;;;1.55;56.12;99286.06;4801725;29;102394;-71
2023/02/27 13:26:04;;;;;;;;;6.75;3.25;;;;;1.48;58.23;99287.56;4777166;29;108688;-69
2023/02/27 13:28:31;;;;;;;;;11.50;5.25;;;;;1.67;52.85;99290.38;4798646;29;102308;-68
2023/02/27 13:31:19;;;;;;;;;3.00;3.00;;;;;1.60;54.54;99297.22;4799335;29;101999;-69
2023/02/27 13:34:05;;;;;;;;;2.50;2.00;;;;;1.45;53.20;99279.81;4799275;29;102047;-70
2023/02/27 13:36:38;;;;;;;;;5.25;3.00;;;;;1.37;53.07;99295.59;4795402;29;108444;-71
2023/02/27 13:39:37;;;;;;;;;4.50;3.00;;;;;1.50;53.01;99290.09;4799870;29;102374;-71
2023/02/27 13:42:26;;;;;;;;;2.00;2.00;;;;;1.40;55.85;99292.66;4777807;29;102309;-69
2023/02/27 13:44:59;;;;;;;;;5.25;3.00;;;;;1.39;56.29;99296.31;4797885;29;102072;-70
2023/02/27 13:47:29;;;;;;;;;0.75;0.75;;;;;1.42;55.23;99295.22;4798031;29;103980;-71
2023/02/27 13:50:01;;;;;;;;;3.50;3.50;;;;;1.38;58.05;99291.97;4796758;29;102173;-70
2023/02/27 13:52:36;;;;;;;;;7.50;4.50;;;;;1.33;55.15;99299.47;4799240;29;102047;-69
2023/02/27 13:55:26;;;;;;;;;7.75;5.00;;;;;1.33;55.04;99289.69;4801604;29;101988;-70
2023/02/27 13:57:58;;;;;;;;;6.00;5.00;;;;;1.20;54.79;99288.13;4795224;29;109040;-70
2023/02/27 14:00:28;;;;;;;;;8.50;5.25;;;;;1.25;54.78;99292.13;4798182;29;104257;-69
2023/02/27 14:03:08;;;;;;;;;4.00;4.00;;;;;1.46;53.29;99289.50;4799622;29;102313;-72
2023/02/27 14:05:38;;;;;;;;;2.75;2.00;;;;;1.80;54.40;99291.03;4797172;29;103448;-70
2023/02/27 14:08:18;;;;;;;;;1.25;1.00;;;;;1.99;53.53;99297.47;4799319;29;103740;-71
2023/02/27 14:11:09;;;;;;;;;4.50;3.00;;;;;1.86;56.66;99291.50;4799374;29;102517;-71
2023/02/27 14:13:53;;;;;;;;;3.00;2.25;;;;;1.45;54.74;99287.81;4796751;29;102050;-71
2023/02/27 14:16:42;;;;;;;;;5.00;3.25;;;;;1.23;53.51;99301.19;4798866;29;102327;-71
2023/02/27 14:19:18;;;;;;;;;3.50;2.00;;;;;1.09;57.44;99302.31;4795153;29;108659;-70
2023/02/27 14:22:10;;;;;;;;;5.00;5.00;;;;;0.94;54.81;99300.06;4796195;29;101984;-70
2023/02/27 14:24:39;;;;;;;;;8.50;5.50;;;;;0.73;57.09;99300.81;4791202;29;102265;-70
2023/02/27 14:27:25;;;;;;;;;6.00;2.25;;;;;0.69;58.23;99315.31;4799540;29;102399;-71
2023/02/27 14:29:57;;;;;;;;;5.00;3.00;;;;;0.82;59.32;99309.88;4782337;29;108580;-70
2023/02/27 14:32:32;;;;;;;;;5.00;4.00;;;;;0.69;57.61;99309.16;4767919;29;102365;-69
2023/02/27 14:35:04;;;;;;;;;8.75;6.00;;;;;0.55;59.02;99312.06;4797916;29;102318;-70
2023/02/27 14:37:32;;;;;;;;;9.00;4.00;;;;;0.51;60.38;99323.91;4796897;29;102264;-69
2023/02/27 14:40:01;;;;;;;;;6.75;5.50;;;;;0.58;59.07;99323.31;4797742;29;104022;-70
2023/02/27 14:42:44;;;;;;;;;6.00;5.25;;;;;0.53;60.02;99324.66;4795073;29;102325;-71
2023/02/27 14:45:18;;;;;;;;;8.25;6.50;;;;;0.45;59.36;99326.06;4799393;29;102260;-70
2023/02/27 14:47:47;;;;;;;;;5.25;4.00;;;;;0.50;58.64;99320.38;4797735;29;102396;-70
2023/02/27 14:50:36;;;;;;;;;8.00;6.00;;;;;0.52;60.41;99326.44;4796049;29;103037;-70
2023/02/27 14:53:04;;;;;;;;;9.00;7.00;;;;;0.51;60.90;99330.06;4797831;29;104023;-70
2023/02/27 14:55:35;;;;;;;;;6.50;5.75;;;;;0.59;60.19;99332.13;4798674;29;102575;-70
2023/02/27 14:58:15;;;;;;;;;5.00;5.00;;;;;0.54;60.83;99308.53;4797190;29;103994;-70
2023/02/27 15:00:49;;;;;;;;;4.00;4.00;;;;;0.76;58.28;99340.50;4780850;29;103984;-70
2023/02/27 15:03:20;;;;;;;;;3.00;2.50;;;;;0.67;57.99;99338.56;4799284;29;102797;-70
2023/02/27 15:05:50;;;;;;;;;8.00;6.00;;;;;0.69;59.56;99349.91;4795904;29;102947;-69
2023/02/27 15:08:22;;;;;;;;;9.25;7.00;;;;;0.49;59.43;99342.66;4799285;29;102330;-70
2023/02/27 15:10:54;;;;;;;;;7.00;5.00;;;;;0.44;58.01;99347.50;4798450;29;108737;-69
2023/02/27 15:13:24;;;;;;;;;10.00;7.00;;;;;0.51;60.71;99351.34;4796618;29;102485;-70
2023/02/27 15:16:18;;;;;;;;;4.25;4.00;;;;;0.56;59.48;99354.50;4798681;29;102319;-69
2023/02/27 15:18:49;;;;;;;;;5.00;4.25;;;;;0.56;57.67;99351.84;4771494;29;102553;-70
2023/02/27 15:21:19;;;;;;;;;4.00;4.00;;;;;0.58;58.85;99352.59;4801735;29;103662;-69
2023/02/27 15:23:54;;;;;;;;;5.00;5.00;;;;;0.64;57.51;99354.75;4799982;29;103912;-70
2023/02/27 15:26:23;;;;;;;;;2.50;2.00;;;;;0.46;58.51;99324.25;4795686;29;102236;-70
2023/02/27 15:28:50;;;;;;;;;5.75;4.00;;;;;0.49;59.37;99355.97;4804094;29;102401;-70
2023/02/27 15:31:21;;;;;;;;;5.00;4.00;;;;;0.57;58.30;99358.88;4801328;29;104040;-70
2023/02/27 15:33:49;;;;;;;;;4.50;4.50;;;;;0.46;58.51;99356.19;4802141;29;102244;-70
2023/02/27 15:36:23;;;;;;;;;4.75;3.00;;;;;0.44;59.08;99360.78;4800362;29;102313;-70
2023/02/27 15:39:03;;;;;;;;;5.00;5.00;;;;;0.30;58.78;99358.34;4785369;29;101999;-70
2023/02/27 15:41:30;;;;;;;;;14.67;10.67;;;;;0.21;59.93;99372.34;4801101;29;108681;-68
2023/02/27 15:43:57;;;;;;;;;9.67;8.67;;;;;0.14;60.04;99355.16;4799862;29;102329;-70
2023/02/27 15:46:25;;;;;;;;;10.50;9.00;;;;;0.02;60.17;99372.91;4799390;29;103040;-69
2023/02/27 15:48:54;;;;;;;;;9.00;8.25;;;;;-0.18;60.59;99350.47;4802955;29;102235;-69
2023/02/27 15:51:21;;;;;;;;;9.00;6.00;;;;;-0.11;58.69;99372.97;4800997;29;108741;-69
2023/02/27 15:53:52;;;;;;;;;5.50;5.00;;;;;-0.17;59.54;99369.91;4798272;29;103464;-70
2023/02/27 15:56:30;;;;;;;;;8.00;6.00;;;;;-0.19;60.51;99370.06;4801561;29;103022;-70
2023/02/27 15:58:58;;;;;;;;;11.00;5.00;;;;;-0.14;58.39;99389.16;4799637;29;102295;-70
2023/02/27 16:01:31;;;;;;;;;3.33;3.33;;;;;-0.13;60.17;99393.50;4799860;29;104109;-70
2023/02/27 16:04:02;;;;;;;;;4.00;3.50;;;;;-0.10;60.24;99401.25;4800637;29;102138;-70
2023/02/27 16:06:34;;;;;;;;;7.00;5.00;;;;;-0.20;58.19;99405.56;4800145;29;102259;-71
2023/02/27 16:09:24;;;;;;;;;4.00;4.00;;;;;-0.19;59.07;99395.78;4802708;29;102074;-69
2023/02/27 16:12:10;;;;;;;;;7.67;6.33;;;;;-0.33;60.90;99407.44;4800037;29;108657;-69
2023/02/27 16:14:38;;;;;;;;;2.50;2.00;;;;;-0.29;60.29;99414.22;4796007;29;102599;-70
2023/02/27 16:17:32;;;;;;;;;6.33;4.00;;;;;-0.31;61.53;99413.47;4800103;29;102247;-70
2023/02/27 16:20:20;;;;;;;;;5.00;5.00;;;;;-0.29;60.85;99418.66;4798249;29;102344;-69
2023/02/27 16:23:13;;;;;;;;;4.00;4.00;;;;;-0.52;60.64;99380.50;4797356;29;104101;-69
2023/02/27 16:25:41;;;;;;;;;4.00;4.00;;;;;-0.32;61.21;99417.09;4800018;29;102628;-69
2023/02/27 16:28:13;;;;;;;;;5.00;5.00;;;;;-0.34;62.38;99423.47;4799144;29;102595;-70
2023/02/27 16:30:41;;;;;;;;;5.00;5.00;;;;;-0.39;59.97;99425.59;4800264;29;102237;-69
2023/02/27 16:33:22;;;;;;;;;2.67;1.00;;;;;-0.41;61.24;99422.22;4797918;29;106125;-69
2023/02/27 16:35:49;;;;;;;;;4.67;4.67;;;;;-0.48;61.53;99429.78;4800742;29;102275;-69
2023/02/27 16:38:16;;;;;;;;;8.33;7.33;;;;;-0.51;62.21;99428.22;4796368;29;102931;-70
2023/02/27 16:40:44;;;;;;;;;5.33;4.67;;;;;-0.51;63.00;99435.34;4800944;29;102287;-69
2023/02/27 16:43:11;;;;;;;;;8.33;5.33;;;;;-0.56;62.12;99440.13;4797488;29;104037;-69
2023/02/27 16:45:50;;;;;;;;;9.67;7.67;;;;;-0.57;62.04;99435.75;4796960;29;102794;-68
2023/02/27 16:48:17;;;;;;;;;8.67;8.00;;;;;-0.56;62.51;99438.31;4798183;29;102391;-70
2023/02/27 16:50:44;;;;;;;;;6.33;4.00;;;;;-0.57;62.33;99444.59;4800119;29;104259;-69
2023/02/27 16:53:11;;;;;;;;;4.33;4.00;;;;;-0.53;63.07;99445.19;4800382;29;104124;-69
2023/02/27 16:55:39;;;;;;;;;3.33;3.33;;;;;-0.80;63.28;99410.00;4800379;29;102894;-69
2023/02/27 16:58:12;;;;;;;;;5.67;4.00;;;;;-0.61;63.55;99458.19;4801106;29;102246;-69
2023/02/27 17:00:39;;;;;;;;;9.00;8.00;;;;;-0.64;62.79;99458.41;4799534;29;102546;-69
2023/02/27 17:03:06;;;;;;;;;9.67;8.00;;;;;-0.73;61.88;99454.63;4802571;29;103954;-69
2023/02/27 17:05:34;;;;;;;;;12.33;9.00;;;;;-0.74;64.24;99452.06;4800142;29;102451;-69
2023/02/27 17:08:01;;;;;;;;;11.67;8.67;;;;;-0.76;63.58;99460.13;4801348;29;103390;-69